Time;durP1;ratioP1;P1;durP2;ratioP2;P2;SDS_P1;SDS_P2;PMS_P1;PMS_P2;Temp;Humidity;BMP_temperature;BMP_pressure;BME280_temperature;BME280_humidity;BME280_pressure;Samples;Min_cycle;Max_cycle;Signal;HPM_P1;HPM_P2
2021/10/27 00:00:48;;;;;;;55.70;24.70;;;;;;;6.49;73.37;99638.19;2220473;80;21056;-66
2021/10/27 00:03:50;;;;;;;56.13;25.53;;;;;;;6.45;74.44;99643.12;2220392;80;21079;-66
2021/10/27 00:06:51;;;;;;;54.93;25.30;;;;;;;6.41;74.53;99643.64;2220513;80;21052;-66
2021/10/27 00:09:53;;;;;;;59.38;25.75;;;;;;;6.44;74.63;99649.22;2220499;80;21503;-66
2021/10/27 00:12:55;;;;;;;56.88;25.90;;;;;;;6.46;74.54;99651.31;2220611;80;21095;-66
2021/10/27 00:15:56;;;;;;;55.33;24.95;;;;;;;6.45;74.59;99652.23;2220403;80;21629;-66
2021/10/27 00:18:58;;;;;;;54.30;24.92;;;;;;;6.45;74.40;99658.75;2220614;80;21036;-66
2021/10/27 00:21:59;;;;;;;51.37;24.18;;;;;;;6.41;74.01;99651.46;2220477;80;21048;-66
2021/10/27 00:25:00;;;;;;;51.20;24.40;;;;;;;6.40;74.54;99656.72;2220626;80;21052;-66
2021/10/27 00:28:03;;;;;;;57.13;24.12;;;;;;;6.39;73.53;99658.92;2220263;80;21091;-67
2021/10/27 00:31:04;;;;;;;52.98;24.72;;;;;;;6.36;73.58;99665.53;2220564;80;21048;-67
2021/10/27 00:34:05;;;;;;;49.55;23.75;;;;;;;6.33;73.42;99657.81;2220492;80;21072;-67
2021/10/27 00:37:07;;;;;;;47.83;23.07;;;;;;;6.30;73.31;99658.75;2220662;80;21591;-66
2021/10/27 00:40:08;;;;;;;51.08;23.05;;;;;;;6.27;73.26;99659.31;2220344;80;21084;-66
2021/10/27 00:43:10;;;;;;;51.33;22.67;;;;;;;6.26;73.32;99659.73;2220556;80;21154;-66
2021/10/27 00:46:11;;;;;;;51.68;23.80;;;;;;;6.22;73.57;99654.21;2220563;80;21028;-67
2021/10/27 00:49:13;;;;;;;48.90;22.95;;;;;;;6.25;73.36;99654.15;2220500;80;21080;-67
2021/10/27 00:52:14;;;;;;;54.08;24.72;;;;;;;6.33;73.49;99654.75;2220435;80;21562;-66
2021/10/27 00:55:16;;;;;;;48.87;23.55;;;;;;;6.41;73.59;99654.53;2211873;80;21068;-67
2021/10/27 00:58:17;;;;;;;54.33;24.70;;;;;;;6.48;73.55;99646.05;2210184;81;21595;-67
2021/10/27 01:01:19;;;;;;;57.35;24.75;;;;;;;6.53;73.51;99644.17;2210252;81;21056;-67
2021/10/27 01:04:22;;;;;;;51.95;23.70;;;;;;;6.56;73.59;99653.19;2210151;81;21067;-67
2021/10/27 01:07:23;;;;;;;52.85;25.35;;;;;;;6.58;73.50;99647.50;2210172;81;21048;-66
2021/10/27 01:10:25;;;;;;;52.58;24.55;;;;;;;6.56;73.20;99650.58;2210075;81;21088;-66
2021/10/27 01:13:27;;;;;;;54.33;25.08;;;;;;;6.55;73.19;99648.88;2210158;81;21028;-66
2021/10/27 01:16:28;;;;;;;54.98;25.52;;;;;;;6.58;73.54;99644.43;2210324;81;21059;-66
2021/10/27 01:19:31;;;;;;;55.03;25.92;;;;;;;6.61;73.64;99650.43;2210152;81;21075;-66
2021/10/27 01:22:33;;;;;;;50.03;24.23;;;;;;;6.65;73.59;99658.13;2210137;81;21033;-66
2021/10/27 01:25:34;;;;;;;53.58;25.12;;;;;;;6.68;73.41;99655.85;2210169;81;21591;-67
2021/10/27 01:28:36;;;;;;;52.05;24.05;;;;;;;6.68;73.13;99661.07;2210286;81;21036;-67
2021/10/27 01:31:37;;;;;;;47.35;23.62;;;;;;;6.65;73.18;99665.08;2210125;81;21075;-67
2021/10/27 01:34:38;;;;;;;52.13;24.45;;;;;;;6.64;73.12;99664.67;2210286;81;21044;-66
2021/10/27 01:37:40;;;;;;;50.63;24.13;;;;;;;6.67;73.11;99668.52;2210087;81;21088;-66
2021/10/27 01:40:42;;;;;;;53.80;24.20;;;;;;;6.65;73.22;99670.30;2209772;81;21575;-66
2021/10/27 01:43:43;;;;;;;55.48;24.12;;;;;;;6.69;73.51;99673.22;2210228;81;20997;-66
2021/10/27 01:46:44;;;;;;;53.15;24.43;;;;;;;6.81;73.74;99671.97;2210157;81;21096;-66
2021/10/27 01:49:47;;;;;;;51.90;23.85;;;;;;;6.94;73.55;99674.59;2210405;81;21008;-66
2021/10/27 01:52:49;;;;;;;49.83;24.60;;;;;;;6.95;73.46;99674.98;2210120;81;21494;-66
2021/10/27 01:55:50;;;;;;;53.10;23.32;;;;;;;6.95;73.38;99676.28;2210087;80;21067;-66
2021/10/27 01:58:52;;;;;;;51.13;23.67;;;;;;;6.97;73.49;99685.36;2210124;81;21029;-66
2021/10/27 02:01:54;;;;;;;56.48;24.10;;;;;;;6.93;73.52;99685.92;2209926;81;21060;-66
2021/10/27 02:04:56;;;;;;;49.73;23.10;;;;;;;6.93;73.86;99680.25;2210299;81;21613;-66
2021/10/27 02:07:58;;;;;;;48.78;23.67;;;;;;;6.91;73.85;99686.41;2210288;81;21033;-66
2021/10/27 02:10:59;;;;;;;49.08;23.55;;;;;;;6.94;74.08;99687.17;2210346;81;21052;-66
2021/10/27 02:14:01;;;;;;;49.60;22.82;;;;;;;7.02;74.00;99684.77;2210408;81;21103;-66
2021/10/27 02:17:02;;;;;;;50.00;22.30;;;;;;;7.07;73.90;99682.88;2210596;81;21526;-66
2021/10/27 02:20:04;;;;;;;48.87;22.67;;;;;;;7.08;73.83;99680.65;2210418;81;20957;-66
2021/10/27 02:23:05;;;;;;;48.65;22.73;;;;;;;7.05;73.97;99679.02;2210326;81;21019;-66
2021/10/27 02:26:07;;;;;;;47.43;22.25;;;;;;;7.05;73.98;99678.14;2210455;81;20972;-67
2021/10/27 02:29:08;;;;;;;46.70;22.65;;;;;;;7.07;74.01;99678.96;2210111;81;20997;-66
2021/10/27 02:32:10;;;;;;;45.23;21.65;;;;;;;7.05;73.98;99676.41;2210229;81;20976;-66
2021/10/27 02:35:11;;;;;;;44.67;21.77;;;;;;;7.03;74.01;99679.96;2210267;81;21503;-66
2021/10/27 02:38:13;;;;;;;49.23;23.12;;;;;;;6.98;74.59;99677.48;2210324;81;20983;-66
2021/10/27 02:41:14;;;;;;;48.30;21.97;;;;;;;6.88;74.06;99669.12;2209912;81;21001;-66
2021/10/27 02:44:15;;;;;;;46.83;21.87;;;;;;;6.85;73.96;99673.14;2210432;81;20980;-66
2021/10/27 02:47:17;;;;;;;49.58;23.50;;;;;;;6.82;73.80;99677.12;2210296;81;20953;-66
2021/10/27 02:50:20;;;;;;;53.05;24.05;;;;;;;6.76;74.01;99669.05;2210452;81;21016;-66
2021/10/27 02:53:21;;;;;;;50.08;23.35;;;;;;;6.72;74.81;99676.59;2210346;80;21551;-67
2021/10/27 02:56:22;;;;;;;48.15;23.12;;;;;;;6.66;75.07;99678.06;2220574;80;21060;-66
2021/10/27 02:59:24;;;;;;;50.58;25.02;;;;;;;6.62;75.15;99683.43;2220534;80;21060;-66
2021/10/27 03:02:25;;;;;;;48.10;22.95;;;;;;;6.61;75.45;99684.32;2220255;80;21103;-66
2021/10/27 03:05:27;;;;;;;56.65;23.92;;;;;;;6.58;75.41;99692.66;2220568;80;21087;-66
2021/10/27 03:08:29;;;;;;;52.88;24.65;;;;;;;6.55;74.89;99698.39;2220780;80;21052;-66
2021/10/27 03:11:30;;;;;;;50.30;23.83;;;;;;;6.48;74.52;99691.66;2220532;80;21099;-66
2021/10/27 03:14:32;;;;;;;51.40;24.30;;;;;;;6.43;74.59;99694.41;2220792;80;21052;-66
2021/10/27 03:17:34;;;;;;;54.15;24.82;;;;;;;6.42;74.80;99695.30;2220664;80;21050;-66
2021/10/27 03:20:35;;;;;;;52.15;23.90;;;;;;;6.45;74.73;99696.97;2220617;80;20999;-66
2021/10/27 03:23:37;;;;;;;54.65;26.25;;;;;;;6.43;74.80;99698.78;2220526;80;21028;-66
2021/10/27 03:26:38;;;;;;;52.73;25.65;;;;;;;6.42;74.96;99700.52;2220684;80;21574;-67
2021/10/27 03:29:40;;;;;;;55.98;27.17;;;;;;;6.46;74.91;99699.99;2220554;80;21080;-66
2021/10/27 03:32:41;;;;;;;53.55;25.37;;;;;;;6.49;74.82;99709.02;2220512;80;21627;-66
2021/10/27 03:35:43;;;;;;;51.77;25.20;;;;;;;6.47;74.65;99705.61;2220430;80;21082;-66
2021/10/27 03:38:44;;;;;;;53.57;26.80;;;;;;;6.33;74.60;99702.11;2220776;80;21079;-66
2021/10/27 03:41:46;;;;;;;59.00;26.62;;;;;;;6.34;75.01;99709.03;2220569;80;21482;-66
2021/10/27 03:44:48;;;;;;;57.20;26.75;;;;;;;6.33;75.15;99712.53;2220629;80;21060;-66
2021/10/27 03:47:52;;;;;;;57.13;26.23;;;;;;;6.29;74.97;99714.82;2220180;80;21103;-66
2021/10/27 03:50:53;;;;;;;50.43;24.95;;;;;;;6.31;75.09;99715.64;2220617;80;21075;-66
2021/10/27 03:53:55;;;;;;;61.23;25.52;;;;;;;6.36;75.18;99719.80;2219338;80;21147;-66
2021/10/27 03:56:56;;;;;;;56.30;27.10;;;;;;;6.38;75.04;99717.17;2210266;81;21539;-66
2021/10/27 03:59:59;;;;;;;53.10;25.85;;;;;;;6.42;75.47;99725.27;2210219;81;21076;-66
2021/10/27 04:03:00;;;;;;;57.90;26.65;;;;;;;6.52;75.28;99728.47;2210326;81;21044;-66
2021/10/27 04:06:02;;;;;;;53.00;26.93;;;;;;;6.60;75.11;99734.31;2210226;81;20976;-66
2021/10/27 04:09:03;;;;;;;60.10;26.50;;;;;;;6.56;74.87;99728.78;2210180;81;21118;-66
2021/10/27 04:12:05;;;;;;;60.12;28.98;;;;;;;6.52;74.97;99731.08;2210161;81;21071;-66
2021/10/27 04:15:06;;;;;;;59.77;27.85;;;;;;;6.50;75.11;99736.80;2210202;81;21519;-66
2021/10/27 04:18:08;;;;;;;58.92;30.02;;;;;;;6.50;75.21;99740.70;2210359;81;20945;-66
2021/10/27 04:21:09;;;;;;;62.80;30.77;;;;;;;6.51;75.44;99745.88;2210285;81;21566;-66
2021/10/27 04:24:11;;;;;;;59.83;29.60;;;;;;;6.56;75.87;99750.48;2210121;81;21095;-66
2021/10/27 04:27:12;;;;;;;60.78;30.08;;;;;;;6.65;75.79;99749.81;2210209;81;21071;-66
2021/10/27 04:30:14;;;;;;;62.88;30.88;;;;;;;6.68;75.78;99740.59;2210312;81;20972;-66
2021/10/27 04:33:16;;;;;;;60.63;30.12;;;;;;;6.68;76.06;99744.50;2210178;81;20941;-66
2021/10/27 04:36:18;;;;;;;62.33;30.70;;;;;;;6.63;75.86;99749.86;2210431;81;20972;-66
2021/10/27 04:39:20;;;;;;;61.15;31.97;;;;;;;6.57;75.63;99746.14;2210275;81;21563;-66
2021/10/27 04:42:22;;;;;;;65.97;30.88;;;;;;;6.47;75.96;99755.13;2209952;81;21499;-66
2021/10/27 04:45:25;;;;;;;66.97;33.25;;;;;;;6.38;75.99;99749.28;2210422;81;21021;-66
2021/10/27 04:48:26;;;;;;;65.45;31.70;;;;;;;6.31;76.08;99756.03;2210326;81;20989;-66
2021/10/27 04:51:28;;;;;;;67.42;30.40;;;;;;;6.24;76.27;99753.58;2210209;81;21682;-66
2021/10/27 04:54:29;;;;;;;63.95;30.05;;;;;;;6.17;76.15;99753.34;2212339;80;21003;-66
2021/10/27 04:57:31;;;;;;;61.40;30.55;;;;;;;6.14;76.39;99761.72;2220613;80;21079;-66
2021/10/27 05:00:32;;;;;;;64.62;29.98;;;;;;;6.09;76.48;99755.77;2220559;80;21483;-66
2021/10/27 05:03:33;;;;;;;62.20;31.52;;;;;;;6.05;76.58;99752.41;2220717;80;21044;-66
2021/10/27 05:06:35;;;;;;;64.80;32.58;;;;;;;5.96;76.35;99759.12;2220558;80;21040;-66
2021/10/27 05:09:36;;;;;;;68.30;31.95;;;;;;;5.95;76.55;99760.00;2220714;80;21067;-66
2021/10/27 05:12:38;;;;;;;71.17;34.55;;;;;;;5.93;76.61;99765.26;2220566;80;21036;-66
2021/10/27 05:15:41;;;;;;;73.35;36.03;;;;;;;5.92;76.56;99764.00;2190199;80;21549;-66
2021/10/27 05:18:43;;;;;;;80.87;38.80;;;;;;;5.97;76.62;99769.95;2220205;80;21143;-66
2021/10/27 05:21:45;;;;;;;75.55;37.85;;;;;;;5.95;76.45;99771.30;2220379;80;21547;-66
2021/10/27 05:24:46;;;;;;;84.92;39.85;;;;;;;5.93;76.29;99770.92;2220453;80;21083;-67
2021/10/27 05:27:47;;;;;;;77.27;37.42;;;;;;;5.88;76.23;99778.87;2220468;80;21544;-66
2021/10/27 05:30:49;;;;;;;76.50;37.88;;;;;;;5.87;76.27;99779.75;2220546;80;21040;-66
2021/10/27 05:33:50;;;;;;;76.92;38.53;;;;;;;5.89;76.40;99776.68;2220395;80;21126;-66
2021/10/27 05:36:52;;;;;;;78.00;38.08;;;;;;;5.88;76.25;99784.91;2220541;80;21087;-66
2021/10/27 05:39:53;;;;;;;80.85;42.20;;;;;;;5.87;76.43;99786.27;2220388;80;21108;-66
2021/10/27 05:42:55;;;;;;;74.15;38.28;;;;;;;5.85;76.31;99786.30;2220177;80;21150;-66
2021/10/27 05:45:57;;;;;;;76.00;37.88;;;;;;;5.80;76.30;99787.32;2220085;80;21080;-66
2021/10/27 05:58:10;;;;;;;76.28;37.48;;;;;;;5.77;76.47;99786.95;2193063;80;20964;-66
2021/10/27 06:01:12;;;;;;;74.35;35.38;;;;;;;5.87;76.67;99791.47;2221026;80;21035;-66
2021/10/27 06:04:13;;;;;;;73.33;36.03;;;;;;;5.96;76.53;99792.55;2220968;80;21023;-66
2021/10/27 06:07:14;;;;;;;67.58;35.30;;;;;;;6.07;76.66;99797.48;2221099;80;21007;-66
2021/10/27 06:13:19;;;;;;;70.00;36.17;;;;;;;6.24;76.31;99799.63;2192942;80;21001;-66
2021/10/27 06:16:21;;;;;;;72.95;35.23;;;;;;;6.33;76.06;99799.36;2221075;80;21502;-66
2021/10/27 06:19:22;;;;;;;71.30;34.88;;;;;;;6.38;76.22;99811.83;2221180;80;21040;-66
2021/10/27 06:22:24;;;;;;;71.12;35.92;;;;;;;6.53;76.06;99804.47;2221426;80;20953;-66
2021/10/27 06:25:27;;;;;;;66.42;35.25;;;;;;;6.63;75.54;99804.61;2221079;80;20968;-67
2021/10/27 06:28:31;;;;;;;71.05;34.18;;;;;;;6.72;75.67;99803.48;2220950;80;21091;-66
2021/10/27 06:34:38;;;;;;;66.07;34.35;;;;;;;6.93;75.77;99808.05;2193668;80;20961;-66
2021/10/27 06:37:53;;;;;;;66.85;32.70;;;;;;;7.04;75.69;99805.56;2192838;80;21503;-67
2021/10/27 06:46:49;;;;;;;70.47;36.48;;;;;;;7.45;75.66;99820.38;2193161;80;20979;-66
2021/10/27 06:49:50;;;;;;;66.97;34.40;;;;;;;7.70;75.56;99814.34;2221140;80;21007;-66
2021/10/27 06:52:52;;;;;;;63.68;34.40;;;;;;;7.88;75.00;99823.33;2221227;80;20949;-66
2021/10/27 06:55:53;;;;;;;67.08;34.48;;;;;;;7.94;74.85;99817.88;2215628;80;21005;-66
2021/10/27 07:17:13;;;;;;;57.33;30.27;;;;;;;8.64;73.65;99838.54;2188816;81;20984;-66
2021/10/27 07:20:14;;;;;;;61.42;33.00;;;;;;;8.79;73.45;99849.75;2210350;81;21001;-66
2021/10/27 07:23:15;;;;;;;60.75;32.20;;;;;;;8.97;73.44;99848.66;2210237;81;20952;-66
2021/10/27 07:26:18;;;;;;;57.23;29.35;;;;;;;9.17;73.08;99840.87;2210267;81;21519;-66
2021/10/27 07:29:20;;;;;;;58.05;29.25;;;;;;;9.33;72.20;99829.81;2210262;81;21085;-66
2021/10/27 07:32:22;;;;;;;54.60;28.12;;;;;;;9.43;72.12;99841.62;2210309;81;21131;-66
2021/10/27 07:41:31;;;;;;;53.87;27.55;;;;;;;9.77;71.54;99826.28;2188744;81;21019;-66
2021/10/27 07:44:32;;;;;;;52.40;26.95;;;;;;;9.86;71.14;99841.16;2210392;81;20992;-65
2021/10/27 07:47:34;;;;;;;50.98;26.02;;;;;;;9.95;71.53;99855.64;2210779;81;20949;-66
2021/10/27 07:50:35;;;;;;;49.50;26.75;;;;;;;9.94;71.11;99860.52;2210350;81;20989;-66
2021/10/27 07:53:37;;;;;;;52.43;25.97;;;;;;;9.97;71.12;99847.72;2210627;81;21510;-66
2021/10/27 07:56:38;;;;;;;50.83;26.23;;;;;;;10.13;70.44;99845.30;2210272;80;21016;-66
2021/10/27 07:59:39;;;;;;;46.98;25.32;;;;;;;10.28;70.19;99844.64;2210346;81;21535;-66
2021/10/27 08:02:41;;;;;;;47.90;24.67;;;;;;;10.45;70.48;99843.09;2210034;81;21004;-66
2021/10/27 08:05:43;;;;;;;52.93;26.87;;;;;;;10.66;69.72;99834.27;2210635;81;21456;-66
2021/10/27 08:08:46;;;;;;;46.58;25.15;;;;;;;10.77;69.13;99835.54;2210183;81;21005;-66
2021/10/27 08:11:48;;;;;;;49.23;25.02;;;;;;;10.84;68.50;99831.24;2210183;81;21068;-65
2021/10/27 08:14:50;;;;;;;52.08;26.05;;;;;;;10.96;68.71;99824.59;2210218;81;21547;-66
2021/10/27 08:17:51;;;;;;;47.35;23.20;;;;;;;11.04;68.15;99821.59;2210335;81;20999;-66
2021/10/27 08:20:53;;;;;;;46.15;22.17;;;;;;;11.20;68.48;99823.88;2210180;81;21068;-66
2021/10/27 08:23:55;;;;;;;47.10;24.05;;;;;;;11.35;67.96;99829.31;2210471;81;20976;-66
2021/10/27 08:27:05;;;;;;;45.65;23.00;;;;;;;11.54;68.17;99828.82;2210340;81;20981;-66
2021/10/27 08:30:05;;;;;;;41.23;20.55;;;;;;;11.74;68.10;99831.78;2188716;81;21665;-66
2021/10/27 08:33:06;;;;;;;43.45;22.20;;;;;;;11.92;65.31;99842.30;2188736;81;20984;-66
2021/10/27 08:36:07;;;;;;;47.78;23.18;;;;;;;11.99;67.20;99846.82;2188384;81;21021;-66
2021/10/27 08:39:09;;;;;;;39.20;19.80;;;;;;;12.17;67.16;99847.64;2210316;81;21044;-65
2021/10/27 08:42:11;;;;;;;43.23;20.12;;;;;;;12.38;66.29;99847.84;2210021;81;21060;-65
2021/10/27 08:45:13;;;;;;;39.08;19.75;;;;;;;12.51;65.27;99848.53;2210815;81;20941;-66
2021/10/27 08:48:14;;;;;;;37.60;17.27;;;;;;;12.55;65.51;99838.23;2210682;81;21024;-66
2021/10/27 08:51:17;;;;;;;37.23;18.17;;;;;;;12.74;63.34;99847.30;2210431;81;21495;-66
2021/10/27 08:54:18;;;;;;;36.35;17.30;;;;;;;12.67;64.63;99843.30;2210462;81;21016;-65
2021/10/27 08:57:21;;;;;;;35.90;17.12;;;;;;;12.73;63.32;99853.49;2218861;80;21159;-66
2021/10/27 09:00:28;;;;;;;41.37;20.50;;;;;;;12.81;65.34;99842.96;2220575;80;21120;-65
2021/10/27 10:04:29;;;;;;;27.27;11.75;;;;;;;14.69;59.72;99809.33;2188938;81;21025;-66
2021/10/27 10:07:30;;;;;;;31.68;12.15;;;;;;;14.78;59.25;99809.22;2188941;81;20984;-65
2021/10/27 10:10:31;;;;;;;27.33;10.30;;;;;;;14.90;58.98;99810.61;2210810;81;20953;-66
2021/10/27 10:13:35;;;;;;;24.67;10.30;;;;;;;15.00;59.25;99806.92;2210717;81;20981;-65
2021/10/27 10:16:36;;;;;;;25.80;10.65;;;;;;;15.06;56.86;99809.16;2188809;81;21555;-65
2021/10/27 10:19:38;;;;;;;26.55;10.95;;;;;;;15.03;56.87;99808.52;2210442;81;21066;-66
2021/10/27 10:22:40;;;;;;;31.17;10.57;;;;;;;15.30;56.75;99795.33;2210558;81;21000;-66
2021/10/27 10:25:41;;;;;;;28.77;9.90;;;;;;;15.30;56.75;99795.33;2210463;81;21051;-66
2021/10/27 10:28:42;;;;;;;26.43;10.40;;;;;;;15.47;54.71;99817.98;2210698;81;20988;-66
2021/10/27 10:31:44;;;;;;;29.37;9.80;;;;;;;15.39;57.31;99811.89;2210545;81;21028;-66
2021/10/27 10:34:48;;;;;;;25.13;10.07;;;;;;;15.57;55.54;99816.91;2210527;81;21424;-65
2021/10/27 11:38:57;;;;;;;21.62;7.92;;;;;;;15.65;53.23;99789.98;2188786;81;21466;-66
2021/10/27 11:42:04;;;;;;;19.92;6.70;;;;;;;15.80;53.87;99781.51;2188410;81;21598;-66
2021/10/27 11:45:05;;;;;;;20.08;6.22;;;;;;;15.72;52.75;99795.23;2188358;81;21527;-66
2021/10/27 11:48:05;;;;;;;21.25;6.87;;;;;;;15.46;51.31;99781.08;2188861;81;21550;-66
2021/10/27 11:51:05;;;;;;;25.08;7.30;;;;;;;15.25;51.88;99789.48;2188301;81;21031;-66
2021/10/27 11:54:07;;;;;;;23.47;6.60;;;;;;;15.16;52.76;99784.80;2210497;81;21068;-66
2021/10/27 11:57:08;;;;;;;20.47;6.27;;;;;;;15.35;52.57;99782.64;2210210;80;21614;-66
2021/10/27 12:00:10;;;;;;;23.60;7.07;;;;;;;15.46;51.80;99784.59;2210374;81;21072;-66
2021/10/27 12:03:15;;;;;;;20.23;6.00;;;;;;;15.66;52.17;99787.23;2210369;80;20981;-66
2021/10/27 12:06:23;;;;;;;23.25;7.33;;;;;;;15.60;51.47;99786.30;2188799;81;20985;-66
2021/10/27 12:13:37;;;;;;;21.70;5.70;;;;;;;15.33;51.57;99774.42;2210326;81;20961;-66
2021/10/27 12:15:38;;;;;;;23.70;6.58;;;;;;;15.28;51.30;99773.91;2188907;81;21016;-66
2021/10/27 12:18:28;;;;;;;20.02;6.08;;;;;;;15.40;51.86;99767.79;2188574;81;20984;-66
2021/10/27 12:21:30;;;;;;;21.80;6.87;;;;;;;15.53;50.80;99764.73;2210742;81;21040;-66
2021/10/27 12:24:31;;;;;;;20.30;6.03;;;;;;;15.75;51.65;99766.77;2210587;80;21003;-66
2021/10/27 12:27:37;;;;;;;20.72;5.87;;;;;;;16.03;50.24;99771.55;2210465;80;20941;-66
2021/10/27 12:30:36;;;;;;;22.02;7.05;;;;;;;16.01;50.84;99773.44;2188935;81;20993;-66
2021/10/27 12:33:38;;;;;;;23.47;7.25;;;;;;;16.03;51.06;99770.68;2210442;80;21020;-66
2021/10/27 12:36:39;;;;;;;25.10;7.25;;;;;;;16.17;50.78;99748.08;2210476;80;21059;-66
2021/10/27 12:39:45;;;;;;;22.95;6.55;;;;;;;16.34;50.65;99756.66;2210378;81;21071;-65
2021/10/27 12:42:45;;;;;;;22.13;6.45;;;;;;;16.22;50.74;99752.59;2188619;81;20999;-66
2021/10/27 12:45:46;;;;;;;20.82;5.87;;;;;;;16.17;50.49;99755.19;2210643;80;20993;-65
2021/10/27 12:48:48;;;;;;;23.42;6.92;;;;;;;16.04;50.85;99755.19;2210398;81;20987;-66
2021/10/27 12:51:49;;;;;;;22.63;6.70;;;;;;;15.88;51.10;99751.42;2210617;81;20941;-66
2021/10/27 12:54:51;;;;;;;21.57;5.67;;;;;;;15.97;51.34;99748.13;2210555;81;21000;-65
2021/10/27 12:57:53;;;;;;;20.30;6.13;;;;;;;15.97;51.34;99748.13;2210275;80;22111;-66
2021/10/27 13:07:08;;;;;;;21.27;5.62;;;;;;;15.80;49.82;99755.89;2188575;81;21513;-66
2021/10/27 13:16:28;;;;;;;20.92;5.33;;;;;;;15.32;50.90;99759.54;2188643;81;20976;-66
2021/10/27 13:31:28;;;;;;;22.67;7.17;;;;;;;14.93;51.88;99746.18;2188690;81;21044;-66
2021/10/27 13:34:30;;;;;;;25.97;7.10;;;;;;;14.93;51.43;99744.86;2210876;81;21012;-66
2021/10/27 13:37:31;;;;;;;23.85;7.90;;;;;;;14.98;52.26;99741.91;2210458;80;21083;-66
2021/10/27 13:40:36;;;;;;;23.00;7.33;;;;;;;14.98;51.77;99752.00;2210681;81;20990;-66
2021/10/27 13:43:43;;;;;;;23.18;8.15;;;;;;;14.98;51.92;99747.20;2188841;81;20997;-66
2021/10/27 13:59:08;;;;;;;25.72;9.10;;;;;;;15.33;52.11;99736.97;2188704;81;21527;-66
2021/10/27 14:08:08;;;;;;;29.15;10.43;;;;;;;15.39;52.30;99725.14;2188753;81;20977;-66
2021/10/27 14:14:16;;;;;;;29.42;10.13;;;;;;;15.28;52.62;99720.55;2188986;81;20973;-66
2021/10/27 14:51:05;;;;;;;72.20;28.85;;;;;;;14.60;54.17;99726.23;2188908;81;21515;-66
2021/10/27 15:21:28;;;;;;;200.80;91.40;;;;;;;13.29;55.94;99736.74;2188599;81;21051;-66
2021/10/27 15:24:39;;;;;;;225.78;105.83;;;;;;;13.13;56.11;99740.70;2188820;81;20981;-66
2021/10/27 15:42:55;;;;;;;130.65;69.58;;;;;;;12.33;57.51;99745.98;2188716;81;21587;-66
2021/10/27 15:51:57;;;;;;;57.15;23.18;;;;;;;11.94;58.39;99745.37;2188284;81;21052;-66
2021/10/27 15:54:59;;;;;;;50.88;21.40;;;;;;;11.77;58.94;99740.11;2210373;81;21493;-66
2021/10/27 15:58:01;;;;;;;49.95;20.85;;;;;;;11.57;59.17;99742.43;2210459;80;21016;-66
2021/10/27 16:01:02;;;;;;;46.30;17.80;;;;;;;11.43;59.50;99741.80;2210438;81;21015;-67
2021/10/27 16:04:04;;;;;;;46.90;17.52;;;;;;;11.23;59.81;99741.47;2210613;81;20976;-66
2021/10/27 16:07:06;;;;;;;41.40;16.07;;;;;;;10.97;60.56;99739.65;2210359;81;21445;-66
2021/10/27 16:13:11;;;;;;;47.33;18.30;;;;;;;10.67;61.36;99736.71;2188850;81;20175;-66
2021/10/27 16:16:14;;;;;;;42.57;18.20;;;;;;;10.53;61.52;99732.09;2210709;81;20996;-66
2021/10/27 16:19:16;;;;;;;45.70;20.20;;;;;;;10.48;61.95;99738.88;2210220;81;20984;-66
2021/10/27 16:22:17;;;;;;;49.98;22.40;;;;;;;10.43;62.08;99742.63;2209936;81;21084;-66
2021/10/27 16:25:19;;;;;;;56.13;25.43;;;;;;;10.43;62.17;99748.75;2210474;81;21545;-66
2021/10/27 16:28:21;;;;;;;60.80;29.20;;;;;;;10.38;62.20;99748.93;2209988;81;21064;-66
2021/10/27 16:31:22;;;;;;;75.90;36.00;;;;;;;10.39;62.31;99749.80;2210302;81;21579;-66
2021/10/27 16:34:24;;;;;;;100.58;48.15;;;;;;;10.35;62.49;99754.31;2210532;81;21032;-66
2021/10/27 16:37:26;;;;;;;102.27;45.75;;;;;;;10.40;62.56;99751.48;2210297;81;21567;-66
2021/10/27 16:40:28;;;;;;;97.60;47.30;;;;;;;10.41;62.67;99753.19;2210242;81;21039;-66
2021/10/27 16:43:30;;;;;;;88.50;44.23;;;;;;;10.40;62.56;99756.72;2210469;81;21535;-66
2021/10/27 16:46:32;;;;;;;91.47;46.42;;;;;;;10.34;62.38;99755.27;2210239;81;21132;-66
2021/10/27 16:49:34;;;;;;;72.50;38.65;;;;;;;10.17;62.50;99749.86;2210245;81;21057;-66
2021/10/27 16:52:35;;;;;;;71.07;41.80;;;;;;;9.99;62.89;99749.77;2210459;81;21040;-66
2021/10/27 16:55:36;;;;;;;64.70;35.38;;;;;;;9.93;63.11;99743.93;2210209;81;21512;-66
2021/10/27 16:58:38;;;;;;;70.72;31.35;;;;;;;9.76;63.59;99747.31;2216692;80;21119;-66
2021/10/27 17:01:39;;;;;;;62.40;27.87;;;;;;;9.75;63.84;99752.98;2220388;80;21081;-66
2021/10/27 17:04:41;;;;;;;71.85;35.33;;;;;;;9.72;63.87;99755.73;2220844;80;21064;-66
2021/10/27 17:07:42;;;;;;;66.77;29.32;;;;;;;9.75;64.13;99757.38;2220484;80;21024;-66
2021/10/27 17:10:44;;;;;;;52.65;23.05;;;;;;;9.72;64.09;99757.05;2220698;80;21050;-66
2021/10/27 17:13:45;;;;;;;56.60;22.65;;;;;;;9.68;64.20;99760.72;2220353;80;21127;-66
2021/10/27 17:16:47;;;;;;;55.38;24.05;;;;;;;9.61;64.39;99761.89;2220717;80;21029;-66
2021/10/27 17:19:49;;;;;;;58.10;25.57;;;;;;;9.55;64.67;99759.06;2220674;80;21134;-66
2021/10/27 17:22:58;;;;;;;108.92;66.35;;;;;;;9.53;64.63;99768.30;2220583;80;21063;-66
2021/10/27 17:25:54;;;;;;;139.20;93.12;;;;;;;9.52;64.76;99773.17;2190259;80;21008;-66
2021/10/27 17:28:55;;;;;;;62.05;37.53;;;;;;;9.47;64.63;99780.82;2220576;80;21028;-66
2021/10/27 17:31:57;;;;;;;67.75;37.53;;;;;;;9.32;64.74;99788.39;2220798;80;21064;-66
2021/10/27 17:34:59;;;;;;;51.70;24.15;;;;;;;9.17;65.28;99791.14;2220450;80;21056;-66
2021/10/27 17:38:00;;;;;;;53.33;24.57;;;;;;;9.17;65.35;99795.07;2220482;80;21067;-66
2021/10/27 17:41:02;;;;;;;55.93;24.43;;;;;;;9.11;65.61;99798.41;2220661;80;21063;-66
2021/10/27 17:44:05;;;;;;;48.50;22.93;;;;;;;9.10;65.94;99802.77;2220838;80;21067;-66
2021/10/27 17:47:10;;;;;;;47.38;21.42;;;;;;;9.07;65.54;99800.74;2220625;80;21516;-66
2021/10/27 17:59:19;;;;;;;51.15;25.05;;;;;;;8.49;66.32;99807.25;2176980;81;21013;-66
2021/10/27 18:02:20;;;;;;;59.73;26.52;;;;;;;8.42;66.54;99806.61;2201770;81;21017;-67
2021/10/27 18:05:22;;;;;;;62.78;26.52;;;;;;;8.32;66.82;99806.09;2201885;81;20993;-66
2021/10/27 18:08:24;;;;;;;59.27;25.82;;;;;;;8.28;67.26;99807.56;2201468;81;21019;-66
2021/10/27 18:11:27;;;;;;;62.27;27.77;;;;;;;8.31;67.49;99803.06;2201766;81;21081;-67
2021/10/27 18:14:30;;;;;;;64.55;28.80;;;;;;;8.36;67.47;99797.70;2201663;81;20993;-67
2021/10/27 18:17:35;;;;;;;62.13;29.45;;;;;;;8.39;67.73;99796.70;2201743;81;21028;-66
2021/10/27 18:20:41;;;;;;;70.97;32.30;;;;;;;8.40;67.38;99807.57;2173930;81;20993;-66
2021/10/27 18:23:55;;;;;;;72.55;34.38;;;;;;;8.39;67.59;99799.31;2173939;81;20993;-66
2021/10/27 18:42:03;;;;;;;79.62;34.15;;;;;;;8.28;68.41;99815.41;2173832;81;21052;-66
2021/10/27 18:45:02;;;;;;;70.92;33.45;;;;;;;8.34;68.06;99813.88;2173888;81;20988;-67
2021/10/27 18:48:04;;;;;;;76.45;34.00;;;;;;;8.29;68.07;99818.43;2201590;81;21061;-66
2021/10/27 19:00:27;;;;;;;67.32;30.50;;;;;;;8.38;68.68;99814.62;2188970;81;21040;-66
2021/10/27 19:18:37;;;;;;;76.97;34.78;;;;;;;8.33;69.10;99819.56;2189155;81;21059;-66
2021/10/27 19:21:38;;;;;;;78.70;36.42;;;;;;;8.39;68.84;99816.31;2210315;81;21047;-66
2021/10/27 20:07:35;;;;;;;75.17;36.60;;;;;;;7.51;70.91;99858.48;2188864;81;21000;-66
2021/10/27 20:10:43;;;;;;;79.58;37.35;;;;;;;7.49;71.03;99857.69;2188715;81;21535;-66
2021/10/27 20:50:31;;;;;;;71.00;35.20;;;;;;;6.44;73.31;99862.05;2188320;81;21678;-66
2021/10/27 20:56:20;;;;;;;74.55;37.55;;;;;;;6.59;73.38;99863.81;2188583;81;21498;-66
2021/10/27 21:14:36;;;;;;;75.60;37.40;;;;;;;6.75;74.01;99860.75;2163138;82;20981;-66
2021/10/27 21:17:37;;;;;;;74.50;36.33;;;;;;;6.92;73.96;99857.66;2182304;82;20992;-66
2021/10/27 21:20:39;;;;;;;76.40;37.50;;;;;;;6.93;73.48;99849.78;2182078;82;21029;-66
2021/10/27 21:23:40;;;;;;;75.97;37.67;;;;;;;6.84;73.79;99844.85;2182133;82;20981;-66
2021/10/27 21:26:43;;;;;;;78.25;37.48;;;;;;;6.82;73.91;99843.18;2182131;82;21510;-66
2021/10/27 21:33:05;;;;;;;77.92;37.30;;;;;;;6.34;73.37;99842.77;2163266;82;21508;-66
2021/10/27 21:45:01;;;;;;;75.78;37.53;;;;;;;6.34;75.28;99830.20;2163381;82;21004;-66